NKS542 KDTW-KDFW
Flight info
| Callsign | NKS542 |
|---|---|
| Flight time | 2h 20m |
| Altitude | 34000 |
| Route | SNDRS3 BGHRT STL RZC FSM RRNET SEEVR4 |
| Aircraft | A320/M-SDE3FGHIRWY/LB1 |
Departure
| Time | 2026-05-04 22:41 |
|---|---|
| Airport | Detroit Metropolitan Wayne County Airport (KDTW) |
Arrival
| Time | 2026-05-05 01:02 |
|---|---|
| Airport | Dallas Fort Worth International Airport (KDFW) |
| Time | Latitude | Longitude | Altitude | Speed | Heading |
|---|---|---|---|---|---|
| 2026-05-04 22:09 | 42.22820 | -83.34732 | 647 ft | 0 kts | 119° |
| 2026-05-04 22:29 | 42.22830 | -83.34755 | 647 ft | 4 kts | 119° |
| 2026-05-04 22:29 | 42.22840 | -83.34780 | 647 ft | 4 kts | 122° |
| 2026-05-04 22:29 | 42.22856 | -83.34804 | 647 ft | 4 kts | 172° |
| 2026-05-04 22:30 | 42.22877 | -83.34796 | 647 ft | 4 kts | 208° |
| 2026-05-04 22:30 | 42.22885 | -83.34790 | 647 ft | 0 kts | 208° |
| 2026-05-04 22:32 | 42.22875 | -83.34798 | 648 ft | 5 kts | 212° |
| 2026-05-04 22:32 | 42.22853 | -83.34824 | 648 ft | 8 kts | 238° |
| 2026-05-04 22:32 | 42.22837 | -83.34911 | 647 ft | 11 kts | 254° |
| 2026-05-04 22:32 | 42.22740 | -83.35001 | 647 ft | 14 kts | 208° |
| 2026-05-04 22:33 | 42.22650 | -83.35066 | 647 ft | 15 kts | 208° |
| 2026-05-04 22:33 | 42.22589 | -83.35112 | 647 ft | 15 kts | 209° |
| 2026-05-04 22:33 | 42.22496 | -83.35181 | 647 ft | 15 kts | 208° |
| 2026-05-04 22:33 | 42.22399 | -83.35252 | 647 ft | 16 kts | 208° |
| 2026-05-04 22:34 | 42.22303 | -83.35332 | 647 ft | 16 kts | 219° |
| 2026-05-04 22:34 | 42.22205 | -83.35411 | 647 ft | 16 kts | 208° |
| 2026-05-04 22:34 | 42.22104 | -83.35487 | 647 ft | 17 kts | 209° |
| 2026-05-04 22:34 | 42.22000 | -83.35562 | 647 ft | 17 kts | 208° |
| 2026-05-04 22:35 | 42.21898 | -83.35637 | 647 ft | 17 kts | 208° |
| 2026-05-04 22:35 | 42.21819 | -83.35589 | 647 ft | 16 kts | 92° |
| 2026-05-04 22:35 | 42.21821 | -83.35437 | 646 ft | 17 kts | 89° |
| 2026-05-04 22:35 | 42.21825 | -83.35275 | 646 ft | 18 kts | 88° |
| 2026-05-04 22:36 | 42.21826 | -83.35103 | 647 ft | 19 kts | 89° |
| 2026-05-04 22:36 | 42.21832 | -83.34924 | 647 ft | 20 kts | 87° |
| 2026-05-04 22:36 | 42.21834 | -83.34754 | 647 ft | 13 kts | 88° |
| 2026-05-04 22:36 | 42.21836 | -83.34624 | 648 ft | 14 kts | 89° |
| 2026-05-04 22:37 | 42.21861 | -83.34499 | 649 ft | 15 kts | 40° |
| 2026-05-04 22:37 | 42.21954 | -83.34428 | 647 ft | 16 kts | 26° |
| 2026-05-04 22:37 | 42.22058 | -83.34352 | 647 ft | 18 kts | 30° |
| 2026-05-04 22:37 | 42.22169 | -83.34269 | 647 ft | 19 kts | 28° |
| 2026-05-04 22:38 | 42.22287 | -83.34183 | 647 ft | 20 kts | 28° |
| 2026-05-04 22:38 | 42.22410 | -83.34092 | 647 ft | 21 kts | 29° |
| 2026-05-04 22:38 | 42.22536 | -83.33998 | 647 ft | 21 kts | 28° |
| 2026-05-04 22:38 | 42.22668 | -83.33903 | 648 ft | 22 kts | 28° |
| 2026-05-04 22:39 | 42.22805 | -83.33802 | 647 ft | 22 kts | 28° |
| 2026-05-04 22:39 | 42.22863 | -83.33738 | 648 ft | 1 kts | 78° |
| 2026-05-04 22:39 | 42.22860 | -83.33718 | 647 ft | 4 kts | 106° |
| 2026-05-04 22:39 | 42.22838 | -83.33662 | 646 ft | 9 kts | 120° |
| 2026-05-04 22:40 | 42.22784 | -83.33646 | 645 ft | 11 kts | 216° |
| 2026-05-04 22:40 | 42.22606 | -83.33780 | 648 ft | 59 kts | 208° |
| 2026-05-04 22:40 | 42.22071 | -83.34173 | 646 ft | 113 kts | 208° |
| 2026-05-04 22:40 | 42.21261 | -83.34770 | 697 ft | 149 kts | 208° |
| 2026-05-04 22:41 | 42.20332 | -83.35488 | 1156 ft | 156 kts | 210° |
| 2026-05-04 22:41 | 42.19377 | -83.36253 | 1737 ft | 163 kts | 213° |
| 2026-05-04 22:41 | 42.18331 | -83.36842 | 2454 ft | 163 kts | 202° |
| 2026-05-04 22:41 | 42.17206 | -83.37245 | 2890 ft | 176 kts | 200° |
| 2026-05-04 22:42 | 42.15956 | -83.37682 | 3157 ft | 195 kts | 200° |
| 2026-05-04 22:42 | 42.14561 | -83.38181 | 3420 ft | 220 kts | 200° |
| 2026-05-04 22:42 | 42.13013 | -83.38745 | 3833 ft | 240 kts | 200° |
| 2026-05-04 22:42 | 42.11404 | -83.39333 | 4573 ft | 246 kts | 200° |
| 2026-05-04 22:43 | 42.09713 | -83.39951 | 5404 ft | 250 kts | 200° |
| 2026-05-04 22:43 | 42.08069 | -83.40566 | 6180 ft | 252 kts | 203° |
| 2026-05-04 22:43 | 42.06517 | -83.41682 | 6873 ft | 251 kts | 219° |
| 2026-05-04 22:43 | 42.05091 | -83.43068 | 7640 ft | 254 kts | 220° |
| 2026-05-04 22:44 | 42.03657 | -83.44479 | 8445 ft | 257 kts | 220° |
| 2026-05-04 22:44 | 42.02223 | -83.45888 | 9162 ft | 260 kts | 220° |
| 2026-05-04 22:44 | 42.00755 | -83.47328 | 9868 ft | 263 kts | 221° |
| 2026-05-04 22:44 | 41.99252 | -83.48808 | 10312 ft | 277 kts | 221° |
| 2026-05-04 22:45 | 41.97649 | -83.50422 | 10456 ft | 299 kts | 222° |
| 2026-05-04 22:45 | 41.94240 | -83.53959 | 11429 ft | 315 kts | 222° |
| 2026-05-04 22:45 | 41.92502 | -83.55762 | 12091 ft | 317 kts | 222° |
| 2026-05-04 22:46 | 41.90745 | -83.57578 | 12715 ft | 320 kts | 222° |
| 2026-05-04 22:46 | 41.88969 | -83.59411 | 13344 ft | 323 kts | 222° |
| 2026-05-04 22:46 | 41.87180 | -83.61254 | 13904 ft | 326 kts | 222° |
| 2026-05-04 22:46 | 41.85372 | -83.63114 | 14439 ft | 329 kts | 222° |
| 2026-05-04 22:47 | 41.83546 | -83.64990 | 14957 ft | 332 kts | 222° |
| 2026-05-04 22:47 | 41.81702 | -83.66887 | 15476 ft | 336 kts | 222° |
| 2026-05-04 22:47 | 41.79842 | -83.68802 | 15971 ft | 339 kts | 222° |
| 2026-05-04 22:47 | 41.77962 | -83.70735 | 16470 ft | 342 kts | 222° |
| 2026-05-04 22:48 | 41.76059 | -83.72685 | 16997 ft | 346 kts | 221° |
| 2026-05-04 22:48 | 41.74138 | -83.74644 | 17499 ft | 349 kts | 221° |
| 2026-05-04 22:48 | 41.72198 | -83.76628 | 17990 ft | 353 kts | 221° |
| 2026-05-04 22:48 | 41.70239 | -83.78629 | 18443 ft | 356 kts | 220° |
| 2026-05-04 22:49 | 41.68126 | -83.80425 | 18920 ft | 362 kts | 216° |
| 2026-05-04 22:49 | 41.65958 | -83.82165 | 19411 ft | 365 kts | 215° |
| 2026-05-04 22:49 | 41.63771 | -83.83914 | 19869 ft | 368 kts | 215° |
| 2026-05-04 22:49 | 41.61566 | -83.85680 | 20310 ft | 371 kts | 215° |
| 2026-05-04 22:50 | 41.59347 | -83.87461 | 20717 ft | 374 kts | 215° |
| 2026-05-04 22:50 | 41.57110 | -83.89258 | 21124 ft | 377 kts | 215° |
| 2026-05-04 22:50 | 41.54851 | -83.91069 | 21546 ft | 380 kts | 215° |
| 2026-05-04 22:50 | 41.52572 | -83.92890 | 21955 ft | 383 kts | 214° |
| 2026-05-04 22:51 | 41.50279 | -83.94722 | 22370 ft | 386 kts | 215° |
| 2026-05-04 22:51 | 41.47970 | -83.96569 | 22769 ft | 389 kts | 214° |
| 2026-05-04 22:51 | 41.45642 | -83.98430 | 23181 ft | 391 kts | 214° |
| 2026-05-04 22:51 | 41.43298 | -84.00298 | 23522 ft | 394 kts | 214° |
| 2026-05-04 22:52 | 41.40938 | -84.02175 | 23883 ft | 396 kts | 214° |
| 2026-05-04 22:52 | 41.38561 | -84.04067 | 24188 ft | 399 kts | 215° |
| 2026-05-04 22:52 | 41.36172 | -84.05971 | 24521 ft | 402 kts | 214° |
| 2026-05-04 22:52 | 41.33766 | -84.07887 | 24858 ft | 404 kts | 215° |
| 2026-05-04 22:53 | 41.31379 | -84.09782 | 25205 ft | 406 kts | 214° |
| 2026-05-04 22:53 | 41.28917 | -84.11751 | 25530 ft | 407 kts | 217° |
| 2026-05-04 22:53 | 41.26727 | -84.14027 | 25850 ft | 405 kts | 227° |
| 2026-05-04 22:53 | 41.24881 | -84.16842 | 26172 ft | 403 kts | 238° |
| 2026-05-04 22:54 | 41.23469 | -84.20040 | 26489 ft | 402 kts | 247° |
| 2026-05-04 22:54 | 41.22422 | -84.23487 | 26782 ft | 403 kts | 251° |
| 2026-05-04 22:54 | 41.21399 | -84.26958 | 27134 ft | 405 kts | 250° |
| 2026-05-04 22:54 | 41.20362 | -84.30446 | 27399 ft | 407 kts | 250° |
| 2026-05-04 22:55 | 41.19312 | -84.33951 | 27777 ft | 408 kts | 250° |
| 2026-05-04 22:55 | 41.18256 | -84.37454 | 28107 ft | 411 kts | 250° |
| 2026-05-04 22:55 | 41.17188 | -84.40988 | 28390 ft | 413 kts | 250° |
| 2026-05-04 22:55 | 41.16118 | -84.44529 | 28742 ft | 414 kts | 250° |
| 2026-05-04 22:56 | 41.15047 | -84.48083 | 29114 ft | 415 kts | 250° |
| 2026-05-04 22:56 | 41.13964 | -84.51678 | 29596 ft | 413 kts | 250° |
| 2026-05-04 22:56 | 41.12912 | -84.55159 | 30001 ft | 412 kts | 250° |
| 2026-05-04 22:56 | 41.11839 | -84.58687 | 30363 ft | 412 kts | 250° |
| 2026-05-04 22:57 | 41.10770 | -84.62202 | 30787 ft | 410 kts | 250° |
| 2026-05-04 22:57 | 41.09916 | -84.65797 | 31151 ft | 408 kts | 258° |
| 2026-05-04 22:57 | 41.09305 | -84.69466 | 31533 ft | 407 kts | 258° |
| 2026-05-04 22:57 | 41.08695 | -84.73123 | 31932 ft | 406 kts | 258° |
| 2026-05-04 22:58 | 41.08086 | -84.76773 | 32315 ft | 405 kts | 258° |
| 2026-05-04 22:58 | 41.07473 | -84.80420 | 32712 ft | 404 kts | 258° |
| 2026-05-04 22:58 | 41.06858 | -84.84048 | 33114 ft | 403 kts | 258° |
| 2026-05-04 22:58 | 41.06241 | -84.87661 | 33503 ft | 402 kts | 258° |
| 2026-05-04 22:59 | 41.05621 | -84.91284 | 33686 ft | 403 kts | 258° |
| 2026-05-04 22:59 | 41.05000 | -84.94924 | 33726 ft | 407 kts | 258° |
| 2026-05-04 22:59 | 41.03754 | -85.02246 | 33720 ft | 408 kts | 258° |
| 2026-05-04 23:00 | 41.02499 | -85.09565 | 33704 ft | 407 kts | 258° |
| 2026-05-04 23:00 | 41.01238 | -85.16890 | 33720 ft | 408 kts | 258° |
| 2026-05-04 23:01 | 40.99967 | -85.24225 | 33720 ft | 409 kts | 258° |
| 2026-05-04 23:01 | 40.98694 | -85.31554 | 33732 ft | 409 kts | 258° |
| 2026-05-04 23:02 | 40.97418 | -85.38883 | 33732 ft | 409 kts | 258° |
| 2026-05-04 23:02 | 40.96134 | -85.46211 | 33726 ft | 409 kts | 258° |
| 2026-05-04 23:03 | 40.94848 | -85.53534 | 33733 ft | 408 kts | 258° |
| 2026-05-04 23:03 | 40.93553 | -85.60846 | 33735 ft | 408 kts | 258° |
| 2026-05-04 23:04 | 40.92256 | -85.68157 | 33735 ft | 408 kts | 258° |
| 2026-05-04 23:04 | 40.90969 | -85.75411 | 33739 ft | 408 kts | 258° |
| 2026-05-04 23:05 | 40.89669 | -85.82712 | 33737 ft | 408 kts | 258° |
| 2026-05-04 23:05 | 40.88412 | -85.90021 | 33720 ft | 407 kts | 262° |
| 2026-05-04 23:06 | 40.87630 | -85.97431 | 33716 ft | 407 kts | 263° |
| 2026-05-04 23:06 | 40.86835 | -86.04839 | 33714 ft | 407 kts | 262° |
| 2026-05-04 23:07 | 40.86039 | -86.12243 | 33715 ft | 407 kts | 262° |
| 2026-05-04 23:07 | 40.85236 | -86.19647 | 33692 ft | 407 kts | 262° |
| 2026-05-04 23:08 | 40.84431 | -86.27017 | 33744 ft | 405 kts | 262° |
| 2026-05-04 23:08 | 40.83620 | -86.34360 | 33743 ft | 403 kts | 262° |
| 2026-05-04 23:09 | 40.82813 | -86.41676 | 33743 ft | 402 kts | 262° |
| 2026-05-04 23:09 | 40.82008 | -86.48986 | 33740 ft | 402 kts | 262° |
| 2026-05-04 23:10 | 40.81196 | -86.56282 | 33734 ft | 402 kts | 262° |
| 2026-05-04 23:10 | 40.80380 | -86.63582 | 33718 ft | 402 kts | 262° |
| 2026-05-04 23:11 | 40.79555 | -86.70876 | 33706 ft | 402 kts | 262° |
| 2026-05-04 23:11 | 40.78719 | -86.78177 | 33703 ft | 403 kts | 262° |
| 2026-05-04 23:12 | 40.77881 | -86.85488 | 33701 ft | 403 kts | 262° |
| 2026-05-04 23:12 | 40.77044 | -86.92795 | 33702 ft | 403 kts | 262° |
| 2026-05-04 23:13 | 40.76204 | -87.00059 | 33700 ft | 403 kts | 261° |
| 2026-05-04 23:13 | 40.75354 | -87.07360 | 33703 ft | 403 kts | 261° |
| 2026-05-04 23:14 | 40.74500 | -87.14661 | 33699 ft | 403 kts | 261° |
| 2026-05-04 23:14 | 40.73640 | -87.21954 | 33698 ft | 403 kts | 261° |
| 2026-05-04 23:15 | 40.72780 | -87.29251 | 33697 ft | 402 kts | 261° |
| 2026-05-04 23:15 | 40.71917 | -87.36535 | 33682 ft | 403 kts | 261° |
| 2026-05-04 23:16 | 40.71042 | -87.43828 | 33682 ft | 403 kts | 261° |
| 2026-05-04 23:16 | 40.70172 | -87.51119 | 33682 ft | 403 kts | 261° |
| 2026-05-04 23:17 | 40.69295 | -87.58411 | 33684 ft | 403 kts | 261° |
| 2026-05-04 23:17 | 40.68412 | -87.65698 | 33681 ft | 403 kts | 260° |
| 2026-05-04 23:18 | 40.67523 | -87.72984 | 33684 ft | 403 kts | 260° |
| 2026-05-04 23:18 | 40.66624 | -87.80258 | 33684 ft | 402 kts | 260° |
| 2026-05-04 23:19 | 40.65718 | -87.87524 | 33681 ft | 402 kts | 259° |
| 2026-05-04 23:19 | 40.63847 | -87.94409 | 33681 ft | 402 kts | 240° |
| 2026-05-04 23:20 | 40.60372 | -88.00187 | 33674 ft | 404 kts | 230° |
| 2026-05-04 23:20 | 40.57265 | -88.04779 | 33670 ft | 404 kts | 230° |
| 2026-05-04 23:21 | 40.53533 | -88.10305 | 33679 ft | 404 kts | 230° |
| 2026-05-04 23:21 | 40.49793 | -88.15832 | 33690 ft | 404 kts | 230° |
| 2026-05-04 23:22 | 40.46054 | -88.21351 | 33666 ft | 404 kts | 230° |
| 2026-05-04 23:22 | 40.42313 | -88.26859 | 33672 ft | 404 kts | 230° |
| 2026-05-04 23:23 | 40.38558 | -88.32361 | 33678 ft | 405 kts | 230° |
| 2026-05-04 23:23 | 40.34802 | -88.37864 | 33683 ft | 405 kts | 230° |
| 2026-05-04 23:24 | 40.31050 | -88.43356 | 33684 ft | 405 kts | 230° |
| 2026-05-04 23:24 | 40.27289 | -88.48849 | 33686 ft | 405 kts | 230° |
| 2026-05-04 23:25 | 40.23524 | -88.54344 | 33671 ft | 406 kts | 230° |
| 2026-05-04 23:25 | 40.19746 | -88.59842 | 33682 ft | 406 kts | 230° |
| 2026-05-04 23:26 | 40.15956 | -88.65333 | 33684 ft | 407 kts | 230° |
| 2026-05-04 23:26 | 40.12163 | -88.70831 | 33687 ft | 407 kts | 230° |
| 2026-05-04 23:27 | 40.08392 | -88.76293 | 33696 ft | 408 kts | 230° |
| 2026-05-04 23:27 | 40.04564 | -88.81826 | 33694 ft | 408 kts | 230° |
| 2026-05-04 23:28 | 40.00755 | -88.87310 | 33670 ft | 408 kts | 230° |
| 2026-05-04 23:28 | 39.96938 | -88.92805 | 33674 ft | 410 kts | 230° |
| 2026-05-04 23:29 | 39.93115 | -88.98303 | 33680 ft | 411 kts | 230° |
| 2026-05-04 23:29 | 39.89265 | -89.03818 | 33685 ft | 411 kts | 230° |
| 2026-05-04 23:30 | 39.85411 | -89.09322 | 33685 ft | 412 kts | 230° |
| 2026-05-04 23:30 | 39.81561 | -89.14836 | 33702 ft | 412 kts | 230° |
| 2026-05-04 23:31 | 39.77729 | -89.20307 | 33675 ft | 412 kts | 231° |
| 2026-05-04 23:31 | 39.73866 | -89.25818 | 33688 ft | 412 kts | 231° |
| 2026-05-04 23:32 | 39.69996 | -89.31314 | 33705 ft | 412 kts | 231° |
| 2026-05-04 23:32 | 39.66132 | -89.36802 | 33715 ft | 412 kts | 231° |
| 2026-05-04 23:33 | 39.62264 | -89.42277 | 33716 ft | 411 kts | 231° |
| 2026-05-04 23:33 | 39.58391 | -89.47736 | 33717 ft | 411 kts | 231° |
| 2026-05-04 23:34 | 39.54524 | -89.53197 | 33700 ft | 411 kts | 231° |
| 2026-05-04 23:34 | 39.50655 | -89.58668 | 33700 ft | 412 kts | 231° |
| 2026-05-04 23:35 | 39.46773 | -89.64127 | 33705 ft | 412 kts | 231° |
| 2026-05-04 23:35 | 39.42879 | -89.69583 | 33703 ft | 413 kts | 231° |
| 2026-05-04 23:36 | 39.38985 | -89.75035 | 33697 ft | 412 kts | 231° |
| 2026-05-04 23:36 | 39.35091 | -89.80476 | 33685 ft | 413 kts | 231° |
| 2026-05-04 23:37 | 39.31191 | -89.85930 | 33684 ft | 414 kts | 232° |
| 2026-05-04 23:37 | 39.27277 | -89.91380 | 33690 ft | 415 kts | 232° |
| 2026-05-04 23:38 | 39.23345 | -89.96840 | 33690 ft | 415 kts | 232° |
| 2026-05-04 23:38 | 39.19414 | -90.02301 | 33691 ft | 415 kts | 232° |
| 2026-05-04 23:39 | 39.15482 | -90.07755 | 33705 ft | 415 kts | 232° |
| 2026-05-04 23:39 | 39.11545 | -90.13204 | 33697 ft | 415 kts | 232° |
| 2026-05-04 23:40 | 39.07602 | -90.18645 | 33701 ft | 415 kts | 232° |
| 2026-05-04 23:40 | 39.03659 | -90.24081 | 33681 ft | 415 kts | 232° |
| 2026-05-04 23:41 | 38.99748 | -90.29477 | 33682 ft | 415 kts | 232° |
| 2026-05-04 23:41 | 38.95804 | -90.34904 | 33689 ft | 416 kts | 232° |
| 2026-05-04 23:42 | 38.91851 | -90.40326 | 33685 ft | 415 kts | 232° |
| 2026-05-04 23:42 | 38.87906 | -90.45728 | 33686 ft | 414 kts | 233° |
| 2026-05-04 23:43 | 38.83991 | -90.51135 | 33698 ft | 412 kts | 234° |
| 2026-05-04 23:43 | 38.80242 | -90.56673 | 33721 ft | 410 kts | 235° |
| 2026-05-04 23:44 | 38.76543 | -90.62235 | 33714 ft | 410 kts | 235° |
| 2026-05-04 23:44 | 38.72814 | -90.67754 | 33706 ft | 410 kts | 235° |
| 2026-05-04 23:45 | 38.69056 | -90.73245 | 33702 ft | 410 kts | 234° |
| 2026-05-04 23:45 | 38.65299 | -90.78723 | 33706 ft | 409 kts | 235° |
| 2026-05-04 23:46 | 38.61553 | -90.84176 | 33703 ft | 407 kts | 236° |
| 2026-05-04 23:46 | 38.57823 | -90.89602 | 33707 ft | 406 kts | 236° |
| 2026-05-04 23:47 | 38.54097 | -90.95015 | 33713 ft | 405 kts | 236° |
| 2026-05-04 23:47 | 38.50379 | -91.00410 | 33710 ft | 405 kts | 236° |
| 2026-05-04 23:48 | 38.46661 | -91.05797 | 33708 ft | 404 kts | 236° |
| 2026-05-04 23:48 | 38.42940 | -91.11179 | 33713 ft | 404 kts | 236° |
| 2026-05-04 23:49 | 38.39216 | -91.16555 | 33737 ft | 404 kts | 236° |
| 2026-05-04 23:49 | 38.35495 | -91.21931 | 33749 ft | 405 kts | 236° |
| 2026-05-04 23:50 | 38.31768 | -91.27299 | 33751 ft | 405 kts | 236° |
| 2026-05-04 23:50 | 38.28029 | -91.32657 | 33754 ft | 405 kts | 236° |
| 2026-05-04 23:51 | 38.24296 | -91.38017 | 33761 ft | 404 kts | 236° |
| 2026-05-04 23:51 | 38.20558 | -91.43367 | 33743 ft | 405 kts | 236° |
| 2026-05-04 23:52 | 38.16818 | -91.48708 | 33729 ft | 405 kts | 237° |
| 2026-05-04 23:52 | 38.13073 | -91.54056 | 33719 ft | 405 kts | 238° |
| 2026-05-04 23:53 | 38.09321 | -91.59401 | 33734 ft | 405 kts | 238° |
| 2026-05-04 23:53 | 38.05567 | -91.64740 | 33746 ft | 405 kts | 238° |
| 2026-05-04 23:54 | 38.01816 | -91.70073 | 33747 ft | 405 kts | 238° |
| 2026-05-04 23:54 | 37.98085 | -91.75367 | 33751 ft | 405 kts | 238° |
| 2026-05-04 23:55 | 37.94322 | -91.80688 | 33734 ft | 407 kts | 238° |
| 2026-05-04 23:55 | 37.90482 | -91.86134 | 33717 ft | 420 kts | 238° |
| 2026-05-04 23:56 | 37.88522 | -91.88899 | 33730 ft | 423 kts | 238° |
| 2026-05-04 23:56 | 37.84590 | -91.94427 | 33737 ft | 421 kts | 239° |
| 2026-05-04 23:57 | 37.80677 | -91.99923 | 33742 ft | 420 kts | 239° |
| 2026-05-04 23:57 | 37.76770 | -92.05406 | 33750 ft | 419 kts | 239° |
| 2026-05-04 23:58 | 37.72868 | -92.10880 | 33754 ft | 419 kts | 239° |
| 2026-05-04 23:58 | 37.68963 | -92.16351 | 33720 ft | 419 kts | 239° |
| 2026-05-04 23:59 | 37.65053 | -92.21820 | 33729 ft | 419 kts | 239° |
| 2026-05-04 23:59 | 37.61141 | -92.27273 | 33723 ft | 419 kts | 239° |
| 2026-05-05 00:00 | 37.57227 | -92.32723 | 33720 ft | 419 kts | 239° |
| 2026-05-05 00:00 | 37.53319 | -92.38149 | 33759 ft | 418 kts | 239° |
| 2026-05-05 00:01 | 37.49420 | -92.43562 | 33769 ft | 417 kts | 239° |
| 2026-05-05 00:01 | 37.45522 | -92.48967 | 33771 ft | 417 kts | 239° |
| 2026-05-05 00:02 | 37.41625 | -92.54366 | 33739 ft | 416 kts | 239° |
| 2026-05-05 00:02 | 37.37716 | -92.59753 | 33751 ft | 417 kts | 238° |
| 2026-05-05 00:03 | 37.33808 | -92.65130 | 33753 ft | 417 kts | 238° |
| 2026-05-05 00:03 | 37.29895 | -92.70500 | 33751 ft | 416 kts | 238° |
| 2026-05-05 00:04 | 37.25998 | -92.75861 | 33754 ft | 415 kts | 238° |
| 2026-05-05 00:04 | 37.22108 | -92.81215 | 33757 ft | 415 kts | 238° |
| 2026-05-05 00:05 | 37.18209 | -92.86546 | 33736 ft | 414 kts | 239° |
| 2026-05-05 00:05 | 37.14314 | -92.91872 | 33751 ft | 414 kts | 239° |
| 2026-05-05 00:06 | 37.11077 | -92.96290 | 33757 ft | 414 kts | 239° |
| 2026-05-05 00:06 | 37.07180 | -93.01598 | 33765 ft | 414 kts | 238° |
| 2026-05-05 00:07 | 37.02652 | -93.07761 | 33749 ft | 413 kts | 239° |
| 2026-05-05 00:07 | 36.99393 | -93.12194 | 33775 ft | 413 kts | 239° |
| 2026-05-05 00:08 | 36.95508 | -93.17471 | 33775 ft | 412 kts | 239° |
| 2026-05-05 00:08 | 36.91624 | -93.22729 | 33762 ft | 411 kts | 240° |
| 2026-05-05 00:09 | 36.87744 | -93.27969 | 33782 ft | 410 kts | 240° |
| 2026-05-05 00:09 | 36.83869 | -93.33203 | 33791 ft | 410 kts | 240° |
| 2026-05-05 00:10 | 36.79992 | -93.38417 | 33796 ft | 410 kts | 240° |
| 2026-05-05 00:10 | 36.76115 | -93.43629 | 33798 ft | 409 kts | 240° |
| 2026-05-05 00:11 | 36.72267 | -93.48801 | 33794 ft | 409 kts | 240° |
| 2026-05-05 00:11 | 36.68396 | -93.54002 | 33768 ft | 409 kts | 241° |
| 2026-05-05 00:12 | 36.64530 | -93.59177 | 33790 ft | 407 kts | 241° |
| 2026-05-05 00:12 | 36.60682 | -93.64325 | 33795 ft | 406 kts | 241° |
| 2026-05-05 00:13 | 36.56836 | -93.69460 | 33795 ft | 405 kts | 241° |
| 2026-05-05 00:13 | 36.52997 | -93.74574 | 33793 ft | 404 kts | 241° |
| 2026-05-05 00:14 | 36.49158 | -93.79681 | 33804 ft | 404 kts | 241° |
| 2026-05-05 00:14 | 36.45331 | -93.84774 | 33811 ft | 402 kts | 241° |
| 2026-05-05 00:15 | 36.41511 | -93.89845 | 33790 ft | 401 kts | 240° |
| 2026-05-05 00:15 | 36.37695 | -93.94893 | 33820 ft | 401 kts | 240° |
| 2026-05-05 00:16 | 36.33882 | -93.99923 | 33828 ft | 400 kts | 240° |
| 2026-05-05 00:16 | 36.30105 | -94.04914 | 33827 ft | 399 kts | 241° |
| 2026-05-05 00:17 | 36.26134 | -94.09795 | 33836 ft | 417 kts | 231° |
| 2026-05-05 00:17 | 36.23580 | -94.11688 | 33835 ft | 441 kts | 219° |
| 2026-05-05 00:17 | 36.20572 | -94.12892 | 33834 ft | 470 kts | 205° |
| 2026-05-05 00:18 | 36.14008 | -94.14054 | 33789 ft | 478 kts | 202° |
| 2026-05-05 00:18 | 36.07416 | -94.15171 | 33794 ft | 478 kts | 202° |
| 2026-05-05 00:19 | 36.00830 | -94.16318 | 33802 ft | 478 kts | 203° |
| 2026-05-05 00:19 | 35.94246 | -94.17486 | 33811 ft | 478 kts | 203° |
| 2026-05-05 00:20 | 35.87657 | -94.18655 | 33812 ft | 478 kts | 203° |
| 2026-05-05 00:20 | 35.81066 | -94.19811 | 33771 ft | 479 kts | 202° |
| 2026-05-05 00:21 | 35.74472 | -94.20961 | 33791 ft | 479 kts | 202° |
| 2026-05-05 00:21 | 35.67880 | -94.22105 | 33767 ft | 478 kts | 202° |
| 2026-05-05 00:22 | 35.61283 | -94.23255 | 33771 ft | 479 kts | 202° |
| 2026-05-05 00:22 | 35.54676 | -94.24404 | 33784 ft | 480 kts | 202° |
| 2026-05-05 00:23 | 35.48057 | -94.25551 | 33798 ft | 481 kts | 202° |
| 2026-05-05 00:23 | 35.41579 | -94.27072 | 33756 ft | 460 kts | 213° |
| 2026-05-05 00:23 | 35.38673 | -94.28530 | 33774 ft | 444 kts | 222° |
| 2026-05-05 00:24 | 35.36062 | -94.30422 | 33777 ft | 429 kts | 230° |
| 2026-05-05 00:24 | 35.33763 | -94.32657 | 33781 ft | 416 kts | 236° |
| 2026-05-05 00:24 | 35.31613 | -94.35027 | 33784 ft | 417 kts | 236° |
| 2026-05-05 00:25 | 35.27274 | -94.39756 | 33789 ft | 418 kts | 236° |
| 2026-05-05 00:25 | 35.22902 | -94.44468 | 33795 ft | 419 kts | 236° |
| 2026-05-05 00:26 | 35.18531 | -94.49182 | 33798 ft | 419 kts | 236° |
| 2026-05-05 00:26 | 35.14157 | -94.53908 | 33784 ft | 420 kts | 236° |
| 2026-05-05 00:27 | 35.09775 | -94.58642 | 33773 ft | 422 kts | 236° |
| 2026-05-05 00:27 | 35.05372 | -94.63394 | 33797 ft | 424 kts | 236° |
| 2026-05-05 00:28 | 35.00945 | -94.68159 | 33793 ft | 425 kts | 236° |
| 2026-05-05 00:28 | 34.96527 | -94.72897 | 33780 ft | 426 kts | 236° |
| 2026-05-05 00:29 | 34.92072 | -94.77670 | 33794 ft | 427 kts | 236° |
| 2026-05-05 00:29 | 34.87613 | -94.82443 | 33761 ft | 427 kts | 236° |
| 2026-05-05 00:30 | 34.83135 | -94.87219 | 33772 ft | 429 kts | 236° |
| 2026-05-05 00:30 | 34.78605 | -94.91968 | 33780 ft | 431 kts | 234° |
| 2026-05-05 00:31 | 34.73998 | -94.96654 | 33775 ft | 432 kts | 234° |
| 2026-05-05 00:31 | 34.69372 | -95.01327 | 33796 ft | 432 kts | 234° |
| 2026-05-05 00:32 | 34.64763 | -95.06007 | 33797 ft | 432 kts | 234° |
| 2026-05-05 00:32 | 34.60172 | -95.10690 | 33783 ft | 431 kts | 234° |
| 2026-05-05 00:33 | 34.55577 | -95.15371 | 33797 ft | 431 kts | 234° |
| 2026-05-05 00:33 | 34.50977 | -95.20039 | 33810 ft | 431 kts | 234° |
| 2026-05-05 00:34 | 34.46372 | -95.24696 | 33811 ft | 431 kts | 234° |
| 2026-05-05 00:34 | 34.41797 | -95.29318 | 33811 ft | 431 kts | 234° |
| 2026-05-05 00:35 | 34.37183 | -95.33966 | 33801 ft | 431 kts | 234° |
| 2026-05-05 00:35 | 34.32574 | -95.38593 | 33795 ft | 430 kts | 234° |
| 2026-05-05 00:36 | 34.27962 | -95.43206 | 33813 ft | 430 kts | 234° |
| 2026-05-05 00:36 | 34.23362 | -95.47814 | 33822 ft | 429 kts | 234° |
| 2026-05-05 00:37 | 34.18772 | -95.52417 | 33828 ft | 429 kts | 234° |
| 2026-05-05 00:37 | 34.14182 | -95.57016 | 33475 ft | 428 kts | 233° |
| 2026-05-05 00:37 | 34.11886 | -95.59308 | 33214 ft | 429 kts | 233° |
| 2026-05-05 00:38 | 34.09584 | -95.61602 | 32898 ft | 430 kts | 233° |
| 2026-05-05 00:38 | 34.07267 | -95.63912 | 31935 ft | 435 kts | 233° |
| 2026-05-05 00:38 | 34.04928 | -95.66246 | 31014 ft | 439 kts | 232° |
| 2026-05-05 00:38 | 34.02559 | -95.68605 | 30027 ft | 445 kts | 231° |
| 2026-05-05 00:39 | 34.00155 | -95.70997 | 28892 ft | 450 kts | 230° |
| 2026-05-05 00:39 | 33.97744 | -95.73379 | 28346 ft | 443 kts | 230° |
| 2026-05-05 00:39 | 33.95392 | -95.75677 | 28135 ft | 428 kts | 230° |
| 2026-05-05 00:39 | 33.93108 | -95.77914 | 27825 ft | 419 kts | 230° |
| 2026-05-05 00:40 | 33.90873 | -95.80132 | 27235 ft | 415 kts | 230° |
| 2026-05-05 00:40 | 33.88667 | -95.82346 | 26632 ft | 411 kts | 229° |
| 2026-05-05 00:40 | 33.86479 | -95.84548 | 26037 ft | 408 kts | 229° |
| 2026-05-05 00:40 | 33.84309 | -95.86735 | 25452 ft | 406 kts | 229° |
| 2026-05-05 00:41 | 33.82177 | -95.88877 | 24874 ft | 403 kts | 228° |
| 2026-05-05 00:41 | 33.80022 | -95.91025 | 24278 ft | 401 kts | 227° |
| 2026-05-05 00:41 | 33.77879 | -95.93148 | 23717 ft | 399 kts | 227° |
| 2026-05-05 00:41 | 33.75741 | -95.95256 | 23165 ft | 395 kts | 226° |
| 2026-05-05 00:42 | 33.73618 | -95.97344 | 22520 ft | 393 kts | 226° |
| 2026-05-05 00:42 | 33.71514 | -95.99410 | 21950 ft | 390 kts | 226° |
| 2026-05-05 00:42 | 33.69421 | -96.01463 | 21423 ft | 386 kts | 226° |
| 2026-05-05 00:42 | 33.67345 | -96.03502 | 20813 ft | 385 kts | 226° |
| 2026-05-05 00:43 | 33.65283 | -96.05530 | 20276 ft | 383 kts | 226° |
| 2026-05-05 00:43 | 33.63230 | -96.07548 | 19799 ft | 379 kts | 226° |
| 2026-05-05 00:43 | 33.61187 | -96.09558 | 19246 ft | 378 kts | 226° |
| 2026-05-05 00:43 | 33.59168 | -96.11539 | 18811 ft | 373 kts | 225° |
| 2026-05-05 00:44 | 33.57161 | -96.13508 | 18255 ft | 373 kts | 225° |
| 2026-05-05 00:44 | 33.55158 | -96.15473 | 17715 ft | 370 kts | 225° |
| 2026-05-05 00:44 | 33.53177 | -96.17415 | 17156 ft | 367 kts | 225° |
| 2026-05-05 00:44 | 33.51205 | -96.19349 | 16603 ft | 364 kts | 225° |
| 2026-05-05 00:45 | 33.49252 | -96.21256 | 16083 ft | 361 kts | 225° |
| 2026-05-05 00:45 | 33.47320 | -96.23135 | 15772 ft | 352 kts | 224° |
| 2026-05-05 00:45 | 33.45456 | -96.24946 | 15618 ft | 339 kts | 225° |
| 2026-05-05 00:45 | 33.43806 | -96.26874 | 15283 ft | 327 kts | 234° |
| 2026-05-05 00:46 | 33.42321 | -96.28944 | 14751 ft | 328 kts | 234° |
| 2026-05-05 00:46 | 33.40843 | -96.30997 | 14408 ft | 323 kts | 234° |
| 2026-05-05 00:46 | 33.39375 | -96.33025 | 13970 ft | 322 kts | 233° |
| 2026-05-05 00:46 | 33.37908 | -96.35049 | 13538 ft | 321 kts | 233° |
| 2026-05-05 00:47 | 33.36471 | -96.37030 | 13006 ft | 316 kts | 233° |
| 2026-05-05 00:47 | 33.35026 | -96.39014 | 12522 ft | 304 kts | 233° |
| 2026-05-05 00:47 | 33.33682 | -96.40854 | 12122 ft | 292 kts | 234° |
| 2026-05-05 00:47 | 33.32575 | -96.42815 | 11705 ft | 277 kts | 248° |
| 2026-05-05 00:48 | 33.31906 | -96.44955 | 11461 ft | 276 kts | 254° |
| 2026-05-05 00:48 | 33.31303 | -96.47138 | 11271 ft | 276 kts | 253° |
| 2026-05-05 00:48 | 33.30691 | -96.49297 | 11033 ft | 272 kts | 253° |
| 2026-05-05 00:48 | 33.30091 | -96.51404 | 10855 ft | 265 kts | 253° |
| 2026-05-05 00:49 | 33.29506 | -96.53472 | 10462 ft | 260 kts | 253° |
| 2026-05-05 00:49 | 33.28933 | -96.55510 | 10133 ft | 258 kts | 255° |
| 2026-05-05 00:49 | 33.28636 | -96.57610 | 9848 ft | 256 kts | 268° |
| 2026-05-05 00:49 | 33.28550 | -96.59730 | 9529 ft | 255 kts | 267° |
| 2026-05-05 00:50 | 33.28455 | -96.61837 | 9216 ft | 255 kts | 267° |
| 2026-05-05 00:50 | 33.28358 | -96.63952 | 8906 ft | 255 kts | 266° |
| 2026-05-05 00:50 | 33.28261 | -96.66066 | 8603 ft | 253 kts | 266° |
| 2026-05-05 00:50 | 33.28165 | -96.68160 | 8297 ft | 252 kts | 266° |
| 2026-05-05 00:51 | 33.28070 | -96.70242 | 8004 ft | 250 kts | 266° |
| 2026-05-05 00:51 | 33.27976 | -96.72315 | 7705 ft | 249 kts | 266° |
| 2026-05-05 00:51 | 33.27884 | -96.74374 | 7440 ft | 247 kts | 266° |
| 2026-05-05 00:51 | 33.27792 | -96.76390 | 7245 ft | 241 kts | 266° |
| 2026-05-05 00:52 | 33.27698 | -96.78395 | 6966 ft | 240 kts | 266° |
| 2026-05-05 00:52 | 33.27605 | -96.80392 | 6631 ft | 241 kts | 266° |
| 2026-05-05 00:52 | 33.27514 | -96.82378 | 6424 ft | 238 kts | 265° |
| 2026-05-05 00:52 | 33.27400 | -96.84345 | 6137 ft | 237 kts | 259° |
| 2026-05-05 00:53 | 33.26812 | -96.86145 | 5996 ft | 231 kts | 243° |
| 2026-05-05 00:53 | 33.26079 | -96.87859 | 5998 ft | 232 kts | 243° |
| 2026-05-05 00:53 | 33.25349 | -96.89570 | 5993 ft | 232 kts | 243° |
| 2026-05-05 00:53 | 33.24616 | -96.91292 | 5996 ft | 233 kts | 243° |
| 2026-05-05 00:54 | 33.23880 | -96.93020 | 5997 ft | 234 kts | 243° |
| 2026-05-05 00:54 | 33.23141 | -96.94748 | 5998 ft | 234 kts | 243° |
| 2026-05-05 00:54 | 33.22403 | -96.96475 | 5999 ft | 233 kts | 243° |
| 2026-05-05 00:54 | 33.21667 | -96.98199 | 5999 ft | 234 kts | 243° |
| 2026-05-05 00:55 | 33.20908 | -96.99932 | 5964 ft | 244 kts | 238° |
| 2026-05-05 00:55 | 33.19771 | -97.01428 | 5813 ft | 242 kts | 218° |
| 2026-05-05 00:55 | 33.18296 | -97.02282 | 5591 ft | 233 kts | 198° |
| 2026-05-05 00:55 | 33.16697 | -97.02470 | 5321 ft | 231 kts | 185° |
| 2026-05-05 00:56 | 33.15106 | -97.02473 | 5039 ft | 227 kts | 185° |
| 2026-05-05 00:56 | 33.14064 | -97.02476 | 4849 ft | 225 kts | 185° |
| 2026-05-05 00:56 | 33.12507 | -97.02483 | 4563 ft | 222 kts | 185° |
| 2026-05-05 00:56 | 33.10965 | -97.02492 | 4279 ft | 220 kts | 184° |
| 2026-05-05 00:57 | 33.09453 | -97.02500 | 3984 ft | 211 kts | 184° |
| 2026-05-05 00:57 | 33.08059 | -97.02505 | 3730 ft | 189 kts | 183° |
| 2026-05-05 00:57 | 33.06814 | -97.02511 | 3515 ft | 171 kts | 184° |
| 2026-05-05 00:57 | 33.05652 | -97.02519 | 3313 ft | 163 kts | 184° |
| 2026-05-05 00:58 | 33.04592 | -97.02524 | 3112 ft | 144 kts | 184° |
| 2026-05-05 00:58 | 33.03614 | -97.02530 | 2921 ft | 138 kts | 184° |
| 2026-05-05 00:58 | 33.02662 | -97.02536 | 2738 ft | 136 kts | 183° |
| 2026-05-05 00:58 | 33.01724 | -97.02542 | 2565 ft | 134 kts | 182° |
| 2026-05-05 00:59 | 33.00790 | -97.02548 | 2395 ft | 135 kts | 182° |
| 2026-05-05 00:59 | 32.99856 | -97.02553 | 2221 ft | 134 kts | 181° |
| 2026-05-05 00:59 | 32.98922 | -97.02558 | 2046 ft | 135 kts | 181° |
| 2026-05-05 00:59 | 32.97989 | -97.02563 | 1872 ft | 133 kts | 182° |
| 2026-05-05 01:00 | 32.97061 | -97.02567 | 1703 ft | 134 kts | 180° |
| 2026-05-05 01:00 | 32.96131 | -97.02572 | 1537 ft | 133 kts | 180° |
| 2026-05-05 01:00 | 32.95201 | -97.02579 | 1337 ft | 133 kts | 180° |
| 2026-05-05 01:00 | 32.94276 | -97.02583 | 1156 ft | 133 kts | 179° |
| 2026-05-05 01:01 | 32.93340 | -97.02590 | 994 ft | 132 kts | 177° |
| 2026-05-05 01:01 | 32.92412 | -97.02600 | 765 ft | 133 kts | 179° |
| 2026-05-05 01:01 | 32.91500 | -97.02599 | 617 ft | 131 kts | 181° |
| 2026-05-05 01:01 | 32.90678 | -97.02606 | 580 ft | 92 kts | 180° |
| 2026-05-05 01:02 | 32.90299 | -97.02606 | 575 ft | 35 kts | 180° |
| 2026-05-05 01:02 | 32.90057 | -97.02621 | 572 ft | 34 kts | 192° |
| 2026-05-05 01:02 | 32.89850 | -97.02733 | 572 ft | 32 kts | 211° |